sensor_id;sensor_type;location;lat;lon;timestamp;P1;durP1;ratioP1;P2;durP2;ratioP2
70850;SDS011;58475;49.662;9.636;2023-05-16T00:02:14;9.57;;;5.65;;
70850;SDS011;58475;49.662;9.636;2023-05-16T00:04:40;8.52;;;5.65;;
70850;SDS011;58475;49.662;9.636;2023-05-16T00:07:05;9.68;;;5.35;;
70850;SDS011;58475;49.662;9.636;2023-05-16T00:09:31;9.20;;;5.95;;
70850;SDS011;58475;49.662;9.636;2023-05-16T00:11:56;9.45;;;6.10;;
70850;SDS011;58475;49.662;9.636;2023-05-16T00:14:22;10.88;;;6.03;;
70850;SDS011;58475;49.662;9.636;2023-05-16T00:16:50;8.63;;;5.47;;
70850;SDS011;58475;49.662;9.636;2023-05-16T00:19:17;9.95;;;5.90;;
70850;SDS011;58475;49.662;9.636;2023-05-16T00:21:42;8.93;;;5.72;;
70850;SDS011;58475;49.662;9.636;2023-05-16T00:24:08;10.65;;;5.70;;
70850;SDS011;58475;49.662;9.636;2023-05-16T00:26:34;7.95;;;5.30;;
70850;SDS011;58475;49.662;9.636;2023-05-16T00:28:59;8.27;;;5.70;;
70850;SDS011;58475;49.662;9.636;2023-05-16T00:31:26;8.48;;;5.80;;
70850;SDS011;58475;49.662;9.636;2023-05-16T00:33:52;9.20;;;5.78;;
70850;SDS011;58475;49.662;9.636;2023-05-16T00:36:18;8.05;;;5.45;;
70850;SDS011;58475;49.662;9.636;2023-05-16T00:38:45;10.15;;;5.57;;
70850;SDS011;58475;49.662;9.636;2023-05-16T00:41:10;8.63;;;5.47;;
70850;SDS011;58475;49.662;9.636;2023-05-16T00:43:36;8.95;;;6.20;;
70850;SDS011;58475;49.662;9.636;2023-05-16T00:46:03;8.43;;;5.55;;
70850;SDS011;58475;49.662;9.636;2023-05-16T00:48:29;8.48;;;5.78;;
70850;SDS011;58475;49.662;9.636;2023-05-16T00:50:54;9.15;;;6.00;;
70850;SDS011;58475;49.662;9.636;2023-05-16T00:53:20;9.82;;;5.93;;
70850;SDS011;58475;49.662;9.636;2023-05-16T00:55:46;12.25;;;6.30;;
70850;SDS011;58475;49.662;9.636;2023-05-16T00:58:12;9.20;;;6.05;;
70850;SDS011;58475;49.662;9.636;2023-05-16T01:00:38;9.38;;;5.90;;
70850;SDS011;58475;49.662;9.636;2023-05-16T01:03:04;8.77;;;5.47;;
70850;SDS011;58475;49.662;9.636;2023-05-16T01:05:29;9.55;;;5.32;;
70850;SDS011;58475;49.662;9.636;2023-05-16T01:07:55;9.82;;;5.78;;
70850;SDS011;58475;49.662;9.636;2023-05-16T01:10:20;9.40;;;6.10;;
70850;SDS011;58475;49.662;9.636;2023-05-16T01:15:43;8.50;;;5.57;;
70850;SDS011;58475;49.662;9.636;2023-05-16T01:18:33;10.10;;;5.57;;
70850;SDS011;58475;49.662;9.636;2023-05-16T01:21:12;8.48;;;5.00;;
70850;SDS011;58475;49.662;9.636;2023-05-16T01:26:22;8.73;;;5.72;;
70850;SDS011;58475;49.662;9.636;2023-05-16T01:28:52;8.77;;;5.75;;
70850;SDS011;58475;49.662;9.636;2023-05-16T01:31:18;9.90;;;5.85;;
70850;SDS011;58475;49.662;9.636;2023-05-16T01:33:44;9.00;;;5.57;;
70850;SDS011;58475;49.662;9.636;2023-05-16T01:39:00;8.05;;;5.82;;
70850;SDS011;58475;49.662;9.636;2023-05-16T01:41:40;8.20;;;5.65;;
70850;SDS011;58475;49.662;9.636;2023-05-16T01:47:02;10.70;;;6.00;;
70850;SDS011;58475;49.662;9.636;2023-05-16T01:49:41;9.80;;;5.68;;
70850;SDS011;58475;49.662;9.636;2023-05-16T01:52:12;10.15;;;5.20;;
70850;SDS011;58475;49.662;9.636;2023-05-16T01:54:44;9.48;;;6.13;;
70850;SDS011;58475;49.662;9.636;2023-05-16T01:57:12;9.35;;;5.68;;
70850;SDS011;58475;49.662;9.636;2023-05-16T01:59:38;11.20;;;6.00;;
70850;SDS011;58475;49.662;9.636;2023-05-16T02:02:06;8.90;;;6.07;;
70850;SDS011;58475;49.662;9.636;2023-05-16T02:04:32;8.68;;;5.88;;
70850;SDS011;58475;49.662;9.636;2023-05-16T02:06:57;8.57;;;5.63;;
70850;SDS011;58475;49.662;9.636;2023-05-16T02:09:24;10.27;;;6.03;;
70850;SDS011;58475;49.662;9.636;2023-05-16T02:11:50;9.43;;;5.80;;
70850;SDS011;58475;49.662;9.636;2023-05-16T02:14:15;8.80;;;6.20;;
70850;SDS011;58475;49.662;9.636;2023-05-16T02:16:40;9.73;;;6.15;;
70850;SDS011;58475;49.662;9.636;2023-05-16T02:19:06;9.13;;;5.80;;
70850;SDS011;58475;49.662;9.636;2023-05-16T02:21:31;9.45;;;5.85;;
70850;SDS011;58475;49.662;9.636;2023-05-16T02:23:56;9.23;;;5.93;;
70850;SDS011;58475;49.662;9.636;2023-05-16T02:26:22;9.02;;;5.97;;
70850;SDS011;58475;49.662;9.636;2023-05-16T02:28:47;11.18;;;6.13;;
70850;SDS011;58475;49.662;9.636;2023-05-16T02:34:11;8.98;;;6.15;;
70850;SDS011;58475;49.662;9.636;2023-05-16T02:36:36;12.77;;;6.30;;
70850;SDS011;58475;49.662;9.636;2023-05-16T02:39:02;9.80;;;6.40;;
70850;SDS011;58475;49.662;9.636;2023-05-16T02:41:31;9.82;;;6.60;;
70850;SDS011;58475;49.662;9.636;2023-05-16T02:43:57;9.65;;;7.30;;
70850;SDS011;58475;49.662;9.636;2023-05-16T02:46:23;11.02;;;6.65;;
70850;SDS011;58475;49.662;9.636;2023-05-16T02:48:54;12.15;;;6.63;;
70850;SDS011;58475;49.662;9.636;2023-05-16T02:51:21;11.93;;;7.05;;
70850;SDS011;58475;49.662;9.636;2023-05-16T02:53:48;11.88;;;7.00;;
70850;SDS011;58475;49.662;9.636;2023-05-16T02:56:13;10.32;;;7.10;;
70850;SDS011;58475;49.662;9.636;2023-05-16T02:58:39;11.07;;;6.82;;
70850;SDS011;58475;49.662;9.636;2023-05-16T03:01:05;9.90;;;6.85;;
70850;SDS011;58475;49.662;9.636;2023-05-16T03:03:31;9.75;;;6.82;;
70850;SDS011;58475;49.662;9.636;2023-05-16T03:05:59;10.52;;;6.97;;
70850;SDS011;58475;49.662;9.636;2023-05-16T03:08:24;11.20;;;6.88;;
70850;SDS011;58475;49.662;9.636;2023-05-16T03:10:50;11.45;;;8.40;;
70850;SDS011;58475;49.662;9.636;2023-05-16T03:13:15;9.63;;;6.50;;
70850;SDS011;58475;49.662;9.636;2023-05-16T03:15:43;12.32;;;8.13;;
70850;SDS011;58475;49.662;9.636;2023-05-16T03:18:08;9.52;;;6.75;;
70850;SDS011;58475;49.662;9.636;2023-05-16T03:20:34;9.60;;;6.38;;
70850;SDS011;58475;49.662;9.636;2023-05-16T03:22:59;9.73;;;6.50;;
70850;SDS011;58475;49.662;9.636;2023-05-16T03:25:25;10.50;;;7.13;;
70850;SDS011;58475;49.662;9.636;2023-05-16T03:27:51;10.30;;;6.95;;
70850;SDS011;58475;49.662;9.636;2023-05-16T03:30:18;10.25;;;7.25;;
70850;SDS011;58475;49.662;9.636;2023-05-16T03:32:44;10.43;;;6.72;;
70850;SDS011;58475;49.662;9.636;2023-05-16T03:35:10;10.73;;;6.65;;
70850;SDS011;58475;49.662;9.636;2023-05-16T03:37:36;9.73;;;6.68;;
70850;SDS011;58475;49.662;9.636;2023-05-16T03:40:02;11.30;;;6.82;;
70850;SDS011;58475;49.662;9.636;2023-05-16T03:42:29;10.27;;;7.05;;
70850;SDS011;58475;49.662;9.636;2023-05-16T03:44:56;11.43;;;7.30;;
70850;SDS011;58475;49.662;9.636;2023-05-16T03:47:21;11.45;;;7.35;;
70850;SDS011;58475;49.662;9.636;2023-05-16T03:49:47;11.60;;;7.68;;
70850;SDS011;58475;49.662;9.636;2023-05-16T03:52:12;10.35;;;7.00;;
70850;SDS011;58475;49.662;9.636;2023-05-16T03:54:38;11.15;;;7.30;;
70850;SDS011;58475;49.662;9.636;2023-05-16T03:57:03;10.60;;;7.43;;
70850;SDS011;58475;49.662;9.636;2023-05-16T03:59:28;11.13;;;7.50;;
70850;SDS011;58475;49.662;9.636;2023-05-16T04:01:54;10.38;;;7.45;;
70850;SDS011;58475;49.662;9.636;2023-05-16T04:04:19;10.88;;;7.50;;
70850;SDS011;58475;49.662;9.636;2023-05-16T04:06:45;12.57;;;7.50;;
70850;SDS011;58475;49.662;9.636;2023-05-16T04:09:10;13.23;;;7.63;;
70850;SDS011;58475;49.662;9.636;2023-05-16T04:11:36;12.90;;;7.70;;
70850;SDS011;58475;49.662;9.636;2023-05-16T04:14:02;13.32;;;7.53;;
70850;SDS011;58475;49.662;9.636;2023-05-16T04:16:28;11.30;;;7.88;;
70850;SDS011;58475;49.662;9.636;2023-05-16T04:18:54;14.55;;;8.15;;
70850;SDS011;58475;49.662;9.636;2023-05-16T04:21:20;10.65;;;7.78;;
70850;SDS011;58475;49.662;9.636;2023-05-16T04:23:46;10.85;;;7.50;;
70850;SDS011;58475;49.662;9.636;2023-05-16T04:26:11;10.93;;;7.28;;
70850;SDS011;58475;49.662;9.636;2023-05-16T04:28:38;12.45;;;8.10;;
70850;SDS011;58475;49.662;9.636;2023-05-16T04:31:04;15.13;;;8.75;;
70850;SDS011;58475;49.662;9.636;2023-05-16T04:33:29;12.23;;;8.45;;
70850;SDS011;58475;49.662;9.636;2023-05-16T04:35:55;11.43;;;7.65;;
70850;SDS011;58475;49.662;9.636;2023-05-16T04:38:22;12.75;;;9.00;;
70850;SDS011;58475;49.662;9.636;2023-05-16T04:40:47;12.70;;;8.48;;
70850;SDS011;58475;49.662;9.636;2023-05-16T04:43:14;13.48;;;8.73;;
70850;SDS011;58475;49.662;9.636;2023-05-16T04:45:40;12.55;;;8.88;;
70850;SDS011;58475;49.662;9.636;2023-05-16T04:48:06;14.10;;;9.32;;
70850;SDS011;58475;49.662;9.636;2023-05-16T04:50:38;12.90;;;9.05;;
70850;SDS011;58475;49.662;9.636;2023-05-16T04:53:03;14.25;;;9.32;;
70850;SDS011;58475;49.662;9.636;2023-05-16T04:55:28;14.50;;;8.60;;
70850;SDS011;58475;49.662;9.636;2023-05-16T04:57:54;15.13;;;9.68;;
70850;SDS011;58475;49.662;9.636;2023-05-16T05:00:19;14.25;;;9.00;;
70850;SDS011;58475;49.662;9.636;2023-05-16T05:02:45;14.02;;;9.65;;
70850;SDS011;58475;49.662;9.636;2023-05-16T05:05:10;14.82;;;9.80;;
70850;SDS011;58475;49.662;9.636;2023-05-16T05:07:36;15.32;;;10.20;;
70850;SDS011;58475;49.662;9.636;2023-05-16T05:10:01;18.70;;;11.30;;
70850;SDS011;58475;49.662;9.636;2023-05-16T05:12:27;17.95;;;11.73;;
70850;SDS011;58475;49.662;9.636;2023-05-16T05:14:52;19.00;;;11.65;;
70850;SDS011;58475;49.662;9.636;2023-05-16T05:17:19;17.83;;;11.73;;
70850;SDS011;58475;49.662;9.636;2023-05-16T05:19:45;19.80;;;12.38;;
70850;SDS011;58475;49.662;9.636;2023-05-16T05:22:11;19.05;;;12.18;;
70850;SDS011;58475;49.662;9.636;2023-05-16T05:24:36;19.30;;;12.25;;
70850;SDS011;58475;49.662;9.636;2023-05-16T05:27:01;20.70;;;12.57;;
70850;SDS011;58475;49.662;9.636;2023-05-16T05:29:27;20.60;;;13.32;;
70850;SDS011;58475;49.662;9.636;2023-05-16T05:31:52;18.90;;;12.40;;
70850;SDS011;58475;49.662;9.636;2023-05-16T05:34:18;19.52;;;12.80;;
70850;SDS011;58475;49.662;9.636;2023-05-16T05:36:43;21.90;;;13.13;;
70850;SDS011;58475;49.662;9.636;2023-05-16T05:39:08;20.98;;;13.98;;
70850;SDS011;58475;49.662;9.636;2023-05-16T05:41:34;23.10;;;13.80;;
70850;SDS011;58475;49.662;9.636;2023-05-16T05:43:59;21.40;;;13.48;;
70850;SDS011;58475;49.662;9.636;2023-05-16T05:46:25;24.50;;;14.82;;
70850;SDS011;58475;49.662;9.636;2023-05-16T05:48:50;23.40;;;13.82;;
70850;SDS011;58475;49.662;9.636;2023-05-16T05:51:16;23.10;;;13.65;;
70850;SDS011;58475;49.662;9.636;2023-05-16T05:53:42;20.17;;;13.02;;
70850;SDS011;58475;49.662;9.636;2023-05-16T05:56:07;19.90;;;12.57;;
70850;SDS011;58475;49.662;9.636;2023-05-16T05:58:33;20.13;;;12.45;;
70850;SDS011;58475;49.662;9.636;2023-05-16T06:00:58;21.80;;;12.50;;
70850;SDS011;58475;49.662;9.636;2023-05-16T06:03:24;19.33;;;11.82;;
70850;SDS011;58475;49.662;9.636;2023-05-16T06:05:49;21.40;;;12.13;;
70850;SDS011;58475;49.662;9.636;2023-05-16T06:08:15;20.77;;;12.52;;
70850;SDS011;58475;49.662;9.636;2023-05-16T06:10:40;22.92;;;12.52;;
70850;SDS011;58475;49.662;9.636;2023-05-16T06:13:05;20.75;;;13.15;;
70850;SDS011;58475;49.662;9.636;2023-05-16T06:15:31;17.85;;;11.70;;
70850;SDS011;58475;49.662;9.636;2023-05-16T06:17:56;20.13;;;12.48;;
70850;SDS011;58475;49.662;9.636;2023-05-16T06:20:22;21.77;;;13.07;;
70850;SDS011;58475;49.662;9.636;2023-05-16T06:22:47;20.45;;;12.73;;
70850;SDS011;58475;49.662;9.636;2023-05-16T06:25:13;20.45;;;12.00;;
70850;SDS011;58475;49.662;9.636;2023-05-16T06:27:38;20.17;;;12.48;;
70850;SDS011;58475;49.662;9.636;2023-05-16T06:30:03;21.63;;;12.55;;
70850;SDS011;58475;49.662;9.636;2023-05-16T06:32:29;20.77;;;11.75;;
70850;SDS011;58475;49.662;9.636;2023-05-16T06:34:55;18.95;;;11.77;;
70850;SDS011;58475;49.662;9.636;2023-05-16T06:37:20;19.63;;;12.23;;
70850;SDS011;58475;49.662;9.636;2023-05-16T06:39:47;18.50;;;12.32;;
70850;SDS011;58475;49.662;9.636;2023-05-16T06:42:13;20.10;;;12.57;;
70850;SDS011;58475;49.662;9.636;2023-05-16T06:44:38;22.42;;;13.48;;
70850;SDS011;58475;49.662;9.636;2023-05-16T06:47:03;22.48;;;13.85;;
70850;SDS011;58475;49.662;9.636;2023-05-16T06:49:29;20.50;;;13.25;;
70850;SDS011;58475;49.662;9.636;2023-05-16T06:51:54;23.80;;;14.38;;
70850;SDS011;58475;49.662;9.636;2023-05-16T06:54:20;22.52;;;14.88;;
70850;SDS011;58475;49.662;9.636;2023-05-16T06:56:45;22.73;;;14.30;;
70850;SDS011;58475;49.662;9.636;2023-05-16T06:59:11;23.05;;;13.70;;
70850;SDS011;58475;49.662;9.636;2023-05-16T07:01:36;24.15;;;14.27;;
70850;SDS011;58475;49.662;9.636;2023-05-16T07:04:02;22.75;;;14.57;;
70850;SDS011;58475;49.662;9.636;2023-05-16T07:06:27;20.65;;;13.30;;
70850;SDS011;58475;49.662;9.636;2023-05-16T07:08:52;21.92;;;14.02;;
70850;SDS011;58475;49.662;9.636;2023-05-16T07:11:18;19.05;;;12.55;;
70850;SDS011;58475;49.662;9.636;2023-05-16T07:13:43;22.25;;;12.27;;
70850;SDS011;58475;49.662;9.636;2023-05-16T07:16:08;18.98;;;12.25;;
70850;SDS011;58475;49.662;9.636;2023-05-16T07:18:34;20.05;;;13.35;;
70850;SDS011;58475;49.662;9.636;2023-05-16T07:20:59;21.20;;;12.93;;
70850;SDS011;58475;49.662;9.636;2023-05-16T07:23:25;22.38;;;13.73;;
70850;SDS011;58475;49.662;9.636;2023-05-16T07:25:51;21.55;;;13.38;;
70850;SDS011;58475;49.662;9.636;2023-05-16T07:28:17;21.83;;;13.35;;
70850;SDS011;58475;49.662;9.636;2023-05-16T07:30:42;18.45;;;11.88;;
70850;SDS011;58475;49.662;9.636;2023-05-16T07:33:08;21.33;;;12.88;;
70850;SDS011;58475;49.662;9.636;2023-05-16T07:35:33;21.33;;;13.00;;
70850;SDS011;58475;49.662;9.636;2023-05-16T07:37:59;20.42;;;12.80;;
70850;SDS011;58475;49.662;9.636;2023-05-16T07:40:24;20.75;;;12.85;;
70850;SDS011;58475;49.662;9.636;2023-05-16T07:42:53;20.75;;;13.88;;
70850;SDS011;58475;49.662;9.636;2023-05-16T07:45:19;22.20;;;12.88;;
70850;SDS011;58475;49.662;9.636;2023-05-16T07:47:44;19.85;;;12.85;;
70850;SDS011;58475;49.662;9.636;2023-05-16T07:50:10;18.40;;;12.25;;
70850;SDS011;58475;49.662;9.636;2023-05-16T07:52:35;19.73;;;11.55;;
70850;SDS011;58475;49.662;9.636;2023-05-16T07:55:01;16.85;;;11.13;;
70850;SDS011;58475;49.662;9.636;2023-05-16T07:57:27;16.40;;;10.82;;
70850;SDS011;58475;49.662;9.636;2023-05-16T07:59:53;16.52;;;11.00;;
70850;SDS011;58475;49.662;9.636;2023-05-16T08:02:19;16.50;;;10.43;;
70850;SDS011;58475;49.662;9.636;2023-05-16T08:04:44;17.05;;;10.93;;
70850;SDS011;58475;49.662;9.636;2023-05-16T08:07:10;19.42;;;9.75;;
70850;SDS011;58475;49.662;9.636;2023-05-16T08:09:35;16.33;;;10.02;;
70850;SDS011;58475;49.662;9.636;2023-05-16T08:12:01;14.40;;;9.70;;
70850;SDS011;58475;49.662;9.636;2023-05-16T08:14:29;13.05;;;8.55;;
70850;SDS011;58475;49.662;9.636;2023-05-16T08:16:57;14.40;;;9.13;;
70850;SDS011;58475;49.662;9.636;2023-05-16T08:19:25;12.90;;;8.85;;
70850;SDS011;58475;49.662;9.636;2023-05-16T08:21:50;14.75;;;8.32;;
70850;SDS011;58475;49.662;9.636;2023-05-16T08:24:16;12.80;;;8.50;;
70850;SDS011;58475;49.662;9.636;2023-05-16T08:26:41;14.38;;;8.35;;
70850;SDS011;58475;49.662;9.636;2023-05-16T08:29:07;13.18;;;8.57;;
70850;SDS011;58475;49.662;9.636;2023-05-16T08:31:32;13.38;;;8.27;;
70850;SDS011;58475;49.662;9.636;2023-05-16T08:33:58;14.63;;;8.60;;
70850;SDS011;58475;49.662;9.636;2023-05-16T08:36:23;13.95;;;8.30;;
70850;SDS011;58475;49.662;9.636;2023-05-16T08:38:50;12.43;;;8.23;;
70850;SDS011;58475;49.662;9.636;2023-05-16T08:41:15;11.52;;;8.07;;
70850;SDS011;58475;49.662;9.636;2023-05-16T08:43:40;10.90;;;6.93;;
70850;SDS011;58475;49.662;9.636;2023-05-16T08:46:06;11.82;;;7.70;;
70850;SDS011;58475;49.662;9.636;2023-05-16T08:48:33;13.00;;;8.10;;
70850;SDS011;58475;49.662;9.636;2023-05-16T08:51:01;13.02;;;7.55;;
70850;SDS011;58475;49.662;9.636;2023-05-16T08:53:43;12.25;;;7.75;;
70850;SDS011;58475;49.662;9.636;2023-05-16T08:56:11;11.27;;;7.40;;
70850;SDS011;58475;49.662;9.636;2023-05-16T08:58:37;11.27;;;7.20;;
70850;SDS011;58475;49.662;9.636;2023-05-16T09:01:04;11.50;;;7.38;;
70850;SDS011;58475;49.662;9.636;2023-05-16T09:03:34;12.85;;;7.90;;
70850;SDS011;58475;49.662;9.636;2023-05-16T09:06:00;12.43;;;7.82;;
70850;SDS011;58475;49.662;9.636;2023-05-16T09:08:28;10.48;;;6.88;;
70850;SDS011;58475;49.662;9.636;2023-05-16T09:10:53;12.40;;;8.05;;
70850;SDS011;58475;49.662;9.636;2023-05-16T09:13:19;11.68;;;6.53;;
70850;SDS011;58475;49.662;9.636;2023-05-16T09:15:44;12.43;;;7.50;;
70850;SDS011;58475;49.662;9.636;2023-05-16T09:18:13;12.80;;;7.32;;
70850;SDS011;58475;49.662;9.636;2023-05-16T09:20:42;12.45;;;7.20;;
70850;SDS011;58475;49.662;9.636;2023-05-16T09:23:10;12.75;;;7.53;;
70850;SDS011;58475;49.662;9.636;2023-05-16T09:25:36;12.07;;;7.43;;
70850;SDS011;58475;49.662;9.636;2023-05-16T09:28:01;12.77;;;7.18;;
70850;SDS011;58475;49.662;9.636;2023-05-16T09:30:28;11.90;;;6.40;;
70850;SDS011;58475;49.662;9.636;2023-05-16T09:32:55;9.63;;;5.60;;
70850;SDS011;58475;49.662;9.636;2023-05-16T09:35:21;10.18;;;5.97;;
70850;SDS011;58475;49.662;9.636;2023-05-16T09:37:48;9.63;;;5.68;;
70850;SDS011;58475;49.662;9.636;2023-05-16T09:40:18;9.85;;;5.70;;
70850;SDS011;58475;49.662;9.636;2023-05-16T09:42:45;10.13;;;5.43;;
70850;SDS011;58475;49.662;9.636;2023-05-16T09:45:11;9.27;;;5.25;;
70850;SDS011;58475;49.662;9.636;2023-05-16T09:47:39;10.55;;;5.25;;
70850;SDS011;58475;49.662;9.636;2023-05-16T09:50:11;10.18;;;4.90;;
70850;SDS011;58475;49.662;9.636;2023-05-16T09:52:39;9.68;;;4.68;;
70850;SDS011;58475;49.662;9.636;2023-05-16T09:55:08;9.57;;;4.95;;
70850;SDS011;58475;49.662;9.636;2023-05-16T09:57:37;9.23;;;4.65;;
70850;SDS011;58475;49.662;9.636;2023-05-16T10:00:06;9.93;;;5.05;;
70850;SDS011;58475;49.662;9.636;2023-05-16T10:02:34;8.35;;;4.65;;
70850;SDS011;58475;49.662;9.636;2023-05-16T10:05:01;8.70;;;4.43;;
70850;SDS011;58475;49.662;9.636;2023-05-16T10:07:26;7.13;;;3.83;;
70850;SDS011;58475;49.662;9.636;2023-05-16T10:09:53;7.22;;;3.95;;
70850;SDS011;58475;49.662;9.636;2023-05-16T10:12:20;6.82;;;4.00;;
70850;SDS011;58475;49.662;9.636;2023-05-16T10:14:48;8.45;;;3.88;;
70850;SDS011;58475;49.662;9.636;2023-05-16T10:17:14;7.68;;;3.83;;
70850;SDS011;58475;49.662;9.636;2023-05-16T10:19:40;7.65;;;3.78;;
70850;SDS011;58475;49.662;9.636;2023-05-16T10:22:06;7.68;;;4.03;;
70850;SDS011;58475;49.662;9.636;2023-05-16T10:27:15;7.38;;;3.90;;
70850;SDS011;58475;49.662;9.636;2023-05-16T10:29:42;6.80;;;3.88;;
70850;SDS011;58475;49.662;9.636;2023-05-16T10:32:08;6.93;;;3.75;;
70850;SDS011;58475;49.662;9.636;2023-05-16T10:34:34;7.10;;;4.03;;
70850;SDS011;58475;49.662;9.636;2023-05-16T10:37:00;7.85;;;3.70;;
70850;SDS011;58475;49.662;9.636;2023-05-16T10:39:27;7.97;;;4.30;;
70850;SDS011;58475;49.662;9.636;2023-05-16T10:41:53;7.68;;;4.10;;
70850;SDS011;58475;49.662;9.636;2023-05-16T10:44:20;6.72;;;3.90;;
70850;SDS011;58475;49.662;9.636;2023-05-16T10:46:45;6.88;;;3.60;;
70850;SDS011;58475;49.662;9.636;2023-05-16T10:49:21;8.15;;;3.60;;
70850;SDS011;58475;49.662;9.636;2023-05-16T10:54:34;5.53;;;3.00;;
70850;SDS011;58475;49.662;9.636;2023-05-16T10:57:04;5.87;;;3.10;;
70850;SDS011;58475;49.662;9.636;2023-05-16T10:59:39;5.82;;;2.83;;
70850;SDS011;58475;49.662;9.636;2023-05-16T11:04:48;5.95;;;2.15;;
70850;SDS011;58475;49.662;9.636;2023-05-16T11:07:16;5.50;;;2.10;;
70850;SDS011;58475;49.662;9.636;2023-05-16T11:09:43;4.43;;;2.10;;
70850;SDS011;58475;49.662;9.636;2023-05-16T11:12:09;4.60;;;2.00;;
70850;SDS011;58475;49.662;9.636;2023-05-16T11:14:39;3.92;;;1.88;;
70850;SDS011;58475;49.662;9.636;2023-05-16T11:17:10;3.70;;;2.05;;
70850;SDS011;58475;49.662;9.636;2023-05-16T11:22:27;3.55;;;1.80;;
70850;SDS011;58475;49.662;9.636;2023-05-16T11:27:20;3.60;;;1.80;;
70850;SDS011;58475;49.662;9.636;2023-05-16T11:30:18;2.72;;;1.70;;
70850;SDS011;58475;49.662;9.636;2023-05-16T11:32:44;3.60;;;1.90;;
70850;SDS011;58475;49.662;9.636;2023-05-16T11:35:11;2.85;;;1.70;;
70850;SDS011;58475;49.662;9.636;2023-05-16T11:37:39;4.45;;;1.95;;
70850;SDS011;58475;49.662;9.636;2023-05-16T11:40:05;2.80;;;1.70;;
70850;SDS011;58475;49.662;9.636;2023-05-16T11:42:39;3.35;;;1.63;;
70850;SDS011;58475;49.662;9.636;2023-05-16T11:45:06;3.03;;;1.65;;
70850;SDS011;58475;49.662;9.636;2023-05-16T11:47:39;3.25;;;1.70;;
70850;SDS011;58475;49.662;9.636;2023-05-16T11:50:05;4.30;;;1.85;;
70850;SDS011;58475;49.662;9.636;2023-05-16T11:52:35;4.47;;;1.73;;
70850;SDS011;58475;49.662;9.636;2023-05-16T11:55:02;2.92;;;1.75;;
70850;SDS011;58475;49.662;9.636;2023-05-16T11:57:28;3.45;;;1.80;;
70850;SDS011;58475;49.662;9.636;2023-05-16T11:59:54;1.95;;;1.52;;
70850;SDS011;58475;49.662;9.636;2023-05-16T12:02:19;4.65;;;1.80;;
70850;SDS011;58475;49.662;9.636;2023-05-16T12:04:46;2.60;;;1.60;;
70850;SDS011;58475;49.662;9.636;2023-05-16T12:07:14;3.63;;;1.80;;
70850;SDS011;58475;49.662;9.636;2023-05-16T12:09:40;3.55;;;1.80;;
70850;SDS011;58475;49.662;9.636;2023-05-16T12:12:06;3.05;;;1.65;;
70850;SDS011;58475;49.662;9.636;2023-05-16T12:14:31;3.40;;;1.85;;
70850;SDS011;58475;49.662;9.636;2023-05-16T12:16:57;2.85;;;1.75;;
70850;SDS011;58475;49.662;9.636;2023-05-16T12:19:22;3.58;;;1.90;;
70850;SDS011;58475;49.662;9.636;2023-05-16T12:21:52;4.28;;;1.88;;
70850;SDS011;58475;49.662;9.636;2023-05-16T12:24:18;3.20;;;1.70;;
70850;SDS011;58475;49.662;9.636;2023-05-16T12:26:43;3.53;;;1.80;;
70850;SDS011;58475;49.662;9.636;2023-05-16T12:29:09;3.00;;;1.70;;
70850;SDS011;58475;49.662;9.636;2023-05-16T12:31:36;3.50;;;1.98;;
70850;SDS011;58475;49.662;9.636;2023-05-16T12:34:03;4.75;;;2.50;;
70850;SDS011;58475;49.662;9.636;2023-05-16T12:36:32;4.28;;;1.70;;
70850;SDS011;58475;49.662;9.636;2023-05-16T12:39:01;4.78;;;1.80;;
70850;SDS011;58475;49.662;9.636;2023-05-16T12:41:30;4.70;;;1.98;;
70850;SDS011;58475;49.662;9.636;2023-05-16T12:44:05;4.00;;;1.90;;
70850;SDS011;58475;49.662;9.636;2023-05-16T12:46:39;3.43;;;1.57;;
70850;SDS011;58475;49.662;9.636;2023-05-16T12:49:05;3.92;;;1.70;;
70850;SDS011;58475;49.662;9.636;2023-05-16T12:51:32;11.57;;;6.30;;
70850;SDS011;58475;49.662;9.636;2023-05-16T12:54:05;3.65;;;1.80;;
70850;SDS011;58475;49.662;9.636;2023-05-16T12:56:37;3.67;;;1.58;;
70850;SDS011;58475;49.662;9.636;2023-05-16T12:59:03;5.03;;;2.20;;
70850;SDS011;58475;49.662;9.636;2023-05-16T13:01:28;11.38;;;5.63;;
70850;SDS011;58475;49.662;9.636;2023-05-16T13:03:54;8.77;;;4.35;;
70850;SDS011;58475;49.662;9.636;2023-05-16T13:06:19;5.43;;;2.00;;
70850;SDS011;58475;49.662;9.636;2023-05-16T13:08:45;7.47;;;2.80;;
70850;SDS011;58475;49.662;9.636;2023-05-16T13:11:10;6.28;;;2.70;;
70850;SDS011;58475;49.662;9.636;2023-05-16T13:13:36;9.50;;;3.72;;
70850;SDS011;58475;49.662;9.636;2023-05-16T13:16:01;8.98;;;3.75;;
70850;SDS011;58475;49.662;9.636;2023-05-16T13:18:27;13.45;;;7.70;;
70850;SDS011;58475;49.662;9.636;2023-05-16T13:20:53;8.48;;;3.95;;
70850;SDS011;58475;49.662;9.636;2023-05-16T13:23:18;10.13;;;4.97;;
70850;SDS011;58475;49.662;9.636;2023-05-16T13:25:43;7.70;;;3.95;;
70850;SDS011;58475;49.662;9.636;2023-05-16T13:28:09;11.55;;;5.30;;
70850;SDS011;58475;49.662;9.636;2023-05-16T13:30:35;5.63;;;2.33;;
70850;SDS011;58475;49.662;9.636;2023-05-16T13:33:04;5.90;;;2.90;;
70850;SDS011;58475;49.662;9.636;2023-05-16T13:35:29;10.13;;;3.97;;
70850;SDS011;58475;49.662;9.636;2023-05-16T13:37:54;9.02;;;4.25;;
70850;SDS011;58475;49.662;9.636;2023-05-16T13:40:20;9.30;;;3.42;;
70850;SDS011;58475;49.662;9.636;2023-05-16T13:42:45;5.47;;;1.98;;
70850;SDS011;58475;49.662;9.636;2023-05-16T13:45:10;6.78;;;2.20;;
70850;SDS011;58475;49.662;9.636;2023-05-16T13:47:36;8.07;;;2.80;;
70850;SDS011;58475;49.662;9.636;2023-05-16T13:50:03;7.38;;;3.13;;
70850;SDS011;58475;49.662;9.636;2023-05-16T13:52:33;2.60;;;1.40;;
70850;SDS011;58475;49.662;9.636;2023-05-16T13:54:58;3.55;;;1.80;;
70850;SDS011;58475;49.662;9.636;2023-05-16T13:57:24;8.18;;;3.55;;
70850;SDS011;58475;49.662;9.636;2023-05-16T13:59:51;8.63;;;3.92;;
70850;SDS011;58475;49.662;9.636;2023-05-16T14:02:17;5.38;;;1.92;;
70850;SDS011;58475;49.662;9.636;2023-05-16T14:04:42;6.82;;;1.92;;
70850;SDS011;58475;49.662;9.636;2023-05-16T14:07:07;6.88;;;1.90;;
70850;SDS011;58475;49.662;9.636;2023-05-16T14:09:33;6.63;;;1.80;;
70850;SDS011;58475;49.662;9.636;2023-05-16T14:12:04;6.75;;;2.60;;
70850;SDS011;58475;49.662;9.636;2023-05-16T14:14:31;7.38;;;2.33;;
70850;SDS011;58475;49.662;9.636;2023-05-16T14:16:57;5.72;;;2.28;;
70850;SDS011;58475;49.662;9.636;2023-05-16T14:19:23;6.03;;;1.70;;
70850;SDS011;58475;49.662;9.636;2023-05-16T14:21:48;7.38;;;1.70;;
70850;SDS011;58475;49.662;9.636;2023-05-16T14:24:14;4.18;;;1.50;;
70850;SDS011;58475;49.662;9.636;2023-05-16T14:26:39;4.13;;;1.77;;
70850;SDS011;58475;49.662;9.636;2023-05-16T14:29:05;3.45;;;1.50;;
70850;SDS011;58475;49.662;9.636;2023-05-16T14:31:30;7.57;;;2.20;;
70850;SDS011;58475;49.662;9.636;2023-05-16T14:33:56;3.10;;;1.48;;
70850;SDS011;58475;49.662;9.636;2023-05-16T14:36:23;6.40;;;2.25;;
70850;SDS011;58475;49.662;9.636;2023-05-16T14:38:48;4.63;;;1.58;;
70850;SDS011;58475;49.662;9.636;2023-05-16T14:41:14;5.22;;;1.40;;
70850;SDS011;58475;49.662;9.636;2023-05-16T14:43:40;4.78;;;1.48;;
70850;SDS011;58475;49.662;9.636;2023-05-16T14:46:05;5.05;;;1.58;;
70850;SDS011;58475;49.662;9.636;2023-05-16T14:48:31;4.13;;;1.75;;
70850;SDS011;58475;49.662;9.636;2023-05-16T14:51:00;6.32;;;1.55;;
70850;SDS011;58475;49.662;9.636;2023-05-16T14:53:29;4.65;;;1.50;;
70850;SDS011;58475;49.662;9.636;2023-05-16T14:55:54;5.80;;;1.40;;
70850;SDS011;58475;49.662;9.636;2023-05-16T14:58:20;4.43;;;1.38;;
70850;SDS011;58475;49.662;9.636;2023-05-16T15:00:45;5.03;;;1.55;;
70850;SDS011;58475;49.662;9.636;2023-05-16T15:03:11;5.78;;;1.70;;